createdAt,value
2023-03-28T00:02:09.923Z,71.76
2023-03-28T00:04:55.475Z,71.91
2023-03-28T00:07:41.070Z,71.99
2023-03-28T00:10:26.559Z,72.09
2023-03-28T00:13:12.576Z,71.58
2023-03-28T00:16:02.626Z,71.16
2023-03-28T00:18:48.024Z,71.64
2023-03-28T00:21:39.262Z,71.00
2023-03-28T00:24:25.296Z,71.34
2023-03-28T00:27:10.724Z,71.13
2023-03-28T00:29:55.885Z,70.92
2023-03-28T00:32:41.703Z,71.26
2023-03-28T00:35:27.354Z,70.78
2023-03-28T00:38:12.812Z,70.66
2023-03-28T00:41:00.582Z,70.63
2023-03-28T00:43:49.871Z,71.45
2023-03-28T00:46:39.704Z,71.28
2023-03-28T00:49:26.029Z,71.27
2023-03-28T00:52:13.422Z,71.30
2023-03-28T00:55:00.133Z,71.48
2023-03-28T00:57:49.069Z,71.00
2023-03-28T01:00:35.244Z,71.20
2023-03-28T01:03:23.358Z,71.11
2023-03-28T01:06:11.254Z,71.71
2023-03-28T01:09:00.663Z,72.27
2023-03-28T01:11:46.799Z,72.52
2023-03-28T01:14:33.076Z,72.25
2023-03-28T01:17:20.514Z,71.15
2023-03-28T01:20:58.700Z,71.04
2023-03-28T01:24:11.786Z,70.25
2023-03-28T01:27:08.691Z,70.37
2023-03-28T01:30:08.931Z,70.34
2023-03-28T01:33:42.282Z,71.15
2023-03-28T01:37:15.852Z,71.44
2023-03-28T01:40:18.768Z,70.16
2023-03-28T01:43:36.316Z,70.71
2023-03-28T01:46:30.184Z,71.63
2023-03-28T01:49:22.074Z,70.45
2023-03-28T01:52:18.008Z,70.80
2023-03-28T01:55:18.222Z,71.46
2023-03-28T01:58:05.309Z,70.89
2023-03-28T02:01:11.684Z,70.94
2023-03-28T02:04:01.538Z,71.63
2023-03-28T02:07:08.045Z,71.21
2023-03-28T02:09:58.929Z,70.60
2023-03-28T02:13:09.478Z,70.95
2023-03-28T02:16:06.101Z,70.74
2023-03-28T02:19:30.940Z,69.81
2023-03-28T02:22:54.005Z,70.69
2023-03-28T02:25:55.487Z,71.49
2023-03-28T02:29:00.356Z,71.62
2023-03-28T02:31:54.604Z,71.94
2023-03-28T02:34:42.567Z,71.36
2023-03-28T02:37:43.717Z,72.08
2023-03-28T02:41:08.625Z,72.17
2023-03-28T02:43:59.516Z,71.94
2023-03-28T02:47:01.265Z,71.86
2023-03-28T02:49:53.831Z,71.32
2023-03-28T02:52:44.562Z,71.45
2023-03-28T02:55:50.990Z,70.92
2023-03-28T02:59:22.721Z,71.10
2023-03-28T03:02:08.420Z,70.85
2023-03-28T03:04:54.032Z,70.21
2023-03-28T03:07:39.886Z,70.40
2023-03-28T03:10:25.051Z,70.44
2023-03-28T03:13:10.222Z,70.53
2023-03-28T03:15:55.655Z,70.68
2023-03-28T03:18:41.768Z,70.57
2023-03-28T03:21:27.321Z,70.76
2023-03-28T03:24:12.702Z,70.39
2023-03-28T03:27:01.348Z,70.04
2023-03-28T03:29:47.327Z,69.72
2023-03-28T03:32:35.636Z,69.18
2023-03-28T03:35:22.790Z,69.46
2023-03-28T03:38:08.947Z,69.11
2023-03-28T03:40:54.028Z,69.15
2023-03-28T03:43:39.585Z,70.13
2023-03-28T03:46:24.943Z,70.33
2023-03-28T03:49:11.158Z,70.64
2023-03-28T03:51:56.421Z,70.54
2023-03-28T03:54:41.917Z,69.74
2023-03-28T03:57:28.912Z,70.63
2023-03-28T04:00:18.375Z,70.31
2023-03-28T04:03:06.785Z,70.92
2023-03-28T04:05:56.718Z,70.52
2023-03-28T04:08:42.609Z,71.03
2023-03-28T04:11:28.389Z,71.05
2023-03-28T04:14:13.619Z,71.53
2023-03-28T04:16:58.887Z,70.96
2023-03-28T04:19:47.008Z,70.88
2023-03-28T04:22:33.380Z,71.05
2023-03-28T04:25:18.992Z,70.83
2023-03-28T04:28:05.269Z,70.84
2023-03-28T04:30:57.341Z,70.63
2023-03-28T04:34:03.556Z,70.79
2023-03-28T04:36:50.761Z,70.82
2023-03-28T04:39:36.136Z,70.51
2023-03-28T04:42:50.831Z,70.20
2023-03-28T04:45:38.916Z,69.71
2023-03-28T04:48:31.300Z,69.38
2023-03-28T04:51:16.864Z,69.52
2023-03-28T04:54:02.655Z,69.37
2023-03-28T04:57:21.772Z,70.32
2023-03-28T05:00:11.888Z,70.33
2023-03-28T05:03:25.078Z,70.45
2023-03-28T05:06:19.277Z,70.42
2023-03-28T05:09:04.905Z,70.94
2023-03-28T05:11:50.890Z,70.65
2023-03-28T05:14:36.417Z,71.40
2023-03-28T05:17:30.724Z,70.24
2023-03-28T05:20:19.453Z,70.04
2023-03-28T05:23:09.039Z,70.88
2023-03-28T05:25:57.661Z,71.67
2023-03-28T05:28:44.178Z,71.48
2023-03-28T05:31:31.279Z,71.64
2023-03-28T05:34:34.062Z,71.69
2023-03-28T05:37:19.887Z,71.83
2023-03-28T05:40:12.504Z,72.11
2023-03-28T05:42:59.914Z,72.20
2023-03-28T05:45:48.113Z,72.19
2023-03-28T05:48:38.022Z,72.53
2023-03-28T05:51:23.652Z,72.55
2023-03-28T05:54:08.950Z,72.08
2023-03-28T05:56:54.261Z,71.77
2023-03-28T05:59:43.975Z,72.06
2023-03-28T06:02:31.770Z,72.02
2023-03-28T06:05:18.063Z,70.98
2023-03-28T06:08:04.954Z,70.98
2023-03-28T06:10:51.906Z,70.83
2023-03-28T06:13:44.710Z,70.49
2023-03-28T06:16:32.497Z,70.82
2023-03-28T06:19:19.028Z,70.80
2023-03-28T06:22:09.246Z,70.77
2023-03-28T06:24:54.637Z,71.00
2023-03-28T06:27:50.910Z,71.25
2023-03-28T06:30:38.014Z,70.92
2023-03-28T06:33:26.050Z,71.54
2023-03-28T06:36:12.240Z,71.76
2023-03-28T06:38:57.633Z,70.99
2023-03-28T06:41:44.817Z,72.04
2023-03-28T06:44:31.134Z,71.38
2023-03-28T06:47:35.324Z,71.43
2023-03-28T06:50:21.192Z,72.03
2023-03-28T06:53:17.383Z,72.15
2023-03-28T06:56:02.710Z,70.69
2023-03-28T06:58:48.901Z,71.38
2023-03-28T07:01:38.287Z,72.15
2023-03-28T07:04:34.125Z,71.44
2023-03-28T07:07:19.598Z,71.00
2023-03-28T07:10:07.303Z,71.33
2023-03-28T07:12:52.806Z,71.56
2023-03-28T07:15:38.265Z,71.48
2023-03-28T07:18:23.668Z,70.82
2023-03-28T07:21:14.320Z,70.47
2023-03-28T07:23:59.791Z,70.15
2023-03-28T07:26:54.809Z,69.54
2023-03-28T07:29:46.698Z,69.12
2023-03-28T07:32:42.642Z,69.50
2023-03-28T07:35:39.222Z,69.44
2023-03-28T07:38:24.591Z,70.77
2023-03-28T07:41:13.526Z,69.66
2023-03-28T07:44:00.229Z,69.44
2023-03-28T07:46:45.328Z,67.10
2023-03-28T07:49:30.589Z,68.47
2023-03-28T07:52:15.967Z,67.23
2023-03-28T07:55:01.425Z,67.84
2023-03-28T07:57:49.408Z,68.63
2023-03-28T08:01:06.319Z,66.97
2023-03-28T08:03:54.623Z,66.30
2023-03-28T08:06:43.230Z,66.10
2023-03-28T08:09:28.589Z,64.85
2023-03-28T08:12:36.638Z,65.02
2023-03-28T08:15:22.031Z,65.06
2023-03-28T08:18:07.545Z,65.93
2023-03-28T08:21:00.510Z,64.96
2023-03-28T08:23:48.702Z,64.96
2023-03-28T08:29:29.593Z,64.93
2023-03-28T08:32:15.079Z,64.48
2023-03-28T08:35:00.504Z,64.05
2023-03-28T08:37:46.263Z,63.26
2023-03-28T08:40:32.146Z,63.52
2023-03-28T08:43:36.871Z,63.32
2023-03-28T08:46:27.060Z,62.33
2023-03-28T08:49:18.238Z,62.62
2023-03-28T08:52:04.440Z,61.87
2023-03-28T08:55:35.531Z,61.67
2023-03-28T08:58:21.547Z,62.20
2023-03-28T09:01:09.383Z,61.29
2023-03-28T09:03:55.094Z,61.48
2023-03-28T09:06:49.298Z,61.42
2023-03-28T09:09:45.926Z,61.89
2023-03-28T09:13:00.058Z,61.61
2023-03-28T09:15:47.966Z,60.97
2023-03-28T09:18:55.958Z,60.94
2023-03-28T09:22:16.814Z,60.71
2023-03-28T09:25:17.778Z,59.47
2023-03-28T09:28:26.548Z,60.15
2023-03-28T09:31:15.692Z,58.07
2023-03-28T09:34:02.477Z,57.96
2023-03-28T09:37:02.563Z,59.04
2023-03-28T09:39:50.642Z,58.14
2023-03-28T09:42:49.428Z,58.30
2023-03-28T09:45:56.960Z,56.14
2023-03-28T09:49:01.362Z,55.69
2023-03-28T09:51:53.917Z,53.22
2023-03-28T09:54:41.143Z,56.61
2023-03-28T09:57:26.766Z,54.38
2023-03-28T10:00:21.594Z,54.12
2023-03-28T10:03:29.192Z,53.88
2023-03-28T10:06:24.783Z,52.72
2023-03-28T10:09:25.271Z,53.62
2023-03-28T10:12:31.068Z,55.01
2023-03-28T10:15:39.688Z,54.29
2023-03-28T10:19:03.751Z,55.78
2023-03-28T10:22:14.458Z,54.19
2023-03-28T10:25:08.019Z,55.62
2023-03-28T10:27:53.688Z,56.77
2023-03-28T10:30:40.484Z,54.25
2023-03-28T10:33:31.806Z,53.49
2023-03-28T10:36:40.415Z,52.56
2023-03-28T10:39:31.494Z,49.27
2023-03-28T10:42:46.439Z,47.70
2023-03-28T10:45:54.760Z,49.38
2023-03-28T10:49:01.285Z,50.46
2023-03-28T10:51:47.031Z,49.81
2023-03-28T10:54:41.570Z,49.71
2023-03-28T10:57:44.513Z,48.62
2023-03-28T11:00:57.994Z,48.35
2023-03-28T11:03:55.418Z,48.07
2023-03-28T11:07:10.939Z,46.21
2023-03-28T11:10:35.753Z,50.23
2023-03-28T11:14:02.865Z,48.29
2023-03-28T11:17:04.176Z,47.29
2023-03-28T11:20:06.000Z,44.89
2023-03-28T11:23:30.883Z,44.47
2023-03-28T11:26:41.684Z,44.32
2023-03-28T11:30:14.812Z,45.88
2023-03-28T11:33:30.663Z,44.95
2023-03-28T11:36:38.777Z,43.71
2023-03-28T11:39:52.990Z,43.95
2023-03-28T11:43:00.188Z,41.90
2023-03-28T11:45:52.184Z,43.13
2023-03-28T11:48:56.139Z,44.27
2023-03-28T11:52:01.073Z,45.41
2023-03-28T11:55:01.438Z,44.46
2023-03-28T11:58:00.064Z,42.32
2023-03-28T12:01:08.907Z,43.80
2023-03-28T12:04:17.261Z,43.64
2023-03-28T12:07:16.166Z,45.37
2023-03-28T12:10:29.388Z,42.69
2023-03-28T12:14:11.964Z,41.66
2023-03-28T12:17:15.758Z,40.68
2023-03-28T12:20:01.701Z,41.65
2023-03-28T12:22:54.220Z,43.57
2023-03-28T12:26:25.838Z,40.57
2023-03-28T12:29:28.090Z,43.68
2023-03-28T12:32:29.430Z,44.24
2023-03-28T12:35:29.738Z,42.74
2023-03-28T12:38:27.330Z,43.91
2023-03-28T12:41:29.461Z,43.82
2023-03-28T12:44:25.952Z,41.01
2023-03-28T12:47:21.273Z,43.09
2023-03-28T12:50:15.576Z,43.74
2023-03-28T12:53:01.602Z,42.94
2023-03-28T12:55:53.869Z,43.72
2023-03-28T12:58:42.107Z,42.86
2023-03-28T13:01:54.058Z,43.94
2023-03-28T13:05:04.157Z,41.81
2023-03-28T13:08:09.508Z,42.65
2023-03-28T13:11:05.459Z,42.38
2023-03-28T13:14:16.096Z,43.24
2023-03-28T13:17:25.106Z,41.97
2023-03-28T13:20:16.145Z,41.15
2023-03-28T13:23:08.114Z,41.56
2023-03-28T13:26:02.561Z,42.25
2023-03-28T13:28:49.380Z,43.90
2023-03-28T13:31:34.706Z,41.91
2023-03-28T13:34:23.644Z,46.35
2023-03-28T13:37:24.542Z,42.98
2023-03-28T13:40:40.335Z,42.99
2023-03-28T13:43:28.357Z,41.31
2023-03-28T13:46:16.559Z,41.35
2023-03-28T13:49:10.910Z,41.76
2023-03-28T13:52:02.193Z,40.89
2023-03-28T13:54:47.659Z,42.32
2023-03-28T13:57:33.339Z,43.71
2023-03-28T14:00:23.586Z,43.41
2023-03-28T14:03:15.279Z,45.47
2023-03-28T14:06:12.054Z,42.36
2023-03-28T14:09:02.353Z,42.44
2023-03-28T14:11:49.856Z,41.97
2023-03-28T14:14:42.621Z,42.17
2023-03-28T14:17:34.055Z,42.80
2023-03-28T14:20:19.516Z,45.07
2023-03-28T14:23:05.348Z,43.07
2023-03-28T14:25:57.320Z,43.46
2023-03-28T14:28:45.456Z,42.36
2023-03-28T14:31:32.143Z,41.56
2023-03-28T14:34:20.565Z,41.74
2023-03-28T14:37:14.758Z,40.30
2023-03-28T14:39:59.714Z,40.35
2023-03-28T14:42:44.983Z,43.27
2023-03-28T14:45:34.596Z,42.12
2023-03-28T14:48:24.234Z,41.33
2023-03-28T14:51:13.318Z,42.41
2023-03-28T14:53:58.475Z,43.39
2023-03-28T14:56:44.958Z,40.98
2023-03-28T14:59:38.626Z,40.39
2023-03-28T15:02:32.607Z,41.14
2023-03-28T15:05:20.794Z,41.68
2023-03-28T15:08:17.870Z,43.08
2023-03-28T15:11:13.339Z,42.16
2023-03-28T15:14:15.424Z,41.74
2023-03-28T15:17:01.521Z,43.89
2023-03-28T15:19:51.695Z,42.13
2023-03-28T15:22:37.304Z,44.72
2023-03-28T15:25:23.876Z,43.45
2023-03-28T15:28:09.637Z,42.13
2023-03-28T15:30:58.887Z,43.95
2023-03-28T15:33:47.080Z,42.02
2023-03-28T15:36:33.270Z,43.50
2023-03-28T15:39:39.024Z,44.32
2023-03-28T15:42:32.211Z,43.56
2023-03-28T15:45:20.641Z,45.13
2023-03-28T15:48:12.160Z,45.03
2023-03-28T15:50:57.651Z,44.52
2023-03-28T15:53:46.489Z,45.49
2023-03-28T15:56:33.187Z,45.81
2023-03-28T15:59:40.196Z,45.18
2023-03-28T16:02:25.559Z,46.47
2023-03-28T16:05:14.057Z,47.17
2023-03-28T16:07:59.515Z,45.67
2023-03-28T16:10:44.703Z,46.94
2023-03-28T16:13:50.348Z,45.53
2023-03-28T16:17:09.988Z,45.77
2023-03-28T16:20:13.803Z,45.64
2023-03-28T16:22:59.147Z,47.26
2023-03-28T16:25:44.588Z,44.50
2023-03-28T16:28:29.927Z,44.01
2023-03-28T16:31:15.709Z,44.50
2023-03-28T16:34:01.150Z,46.04
2023-03-28T16:36:46.487Z,47.24
2023-03-28T16:39:31.477Z,46.67
2023-03-28T16:42:16.582Z,46.06
2023-03-28T16:45:02.232Z,45.45
2023-03-28T16:47:47.605Z,46.14
2023-03-28T16:50:33.157Z,47.85
2023-03-28T16:53:18.207Z,44.30
2023-03-28T16:56:05.927Z,43.81
2023-03-28T16:58:51.145Z,46.46
2023-03-28T17:01:36.911Z,44.97
2023-03-28T17:04:22.354Z,44.60
2023-03-28T17:07:07.762Z,46.18
2023-03-28T17:09:53.274Z,43.49
2023-03-28T17:12:38.960Z,45.26
2023-03-28T17:15:24.315Z,44.92
2023-03-28T17:18:09.599Z,46.86
2023-03-28T17:21:03.863Z,48.15
2023-03-28T17:23:50.030Z,47.42
2023-03-28T17:26:35.203Z,46.66
2023-03-28T17:29:27.665Z,47.12
2023-03-28T17:32:13.320Z,46.36
2023-03-28T17:34:58.891Z,48.23
2023-03-28T17:37:44.283Z,50.66
2023-03-28T17:40:29.421Z,51.18
2023-03-28T17:43:15.239Z,50.33
2023-03-28T17:46:01.058Z,53.57
2023-03-28T17:48:47.280Z,51.17
2023-03-28T17:51:35.139Z,53.02
2023-03-28T17:54:24.340Z,52.80
2023-03-28T17:57:11.119Z,52.21
2023-03-28T17:59:56.949Z,52.89
2023-03-28T18:02:42.849Z,53.31
2023-03-28T18:05:37.274Z,53.62
2023-03-28T18:08:22.597Z,53.47
2023-03-28T18:11:10.260Z,54.17
2023-03-28T18:13:55.673Z,53.48
2023-03-28T18:16:43.004Z,55.08
2023-03-28T18:19:28.184Z,55.24
2023-03-28T18:22:15.167Z,54.16
2023-03-28T18:25:01.257Z,54.36
2023-03-28T18:27:47.105Z,55.62
2023-03-28T18:30:32.624Z,54.59
2023-03-28T18:33:19.346Z,53.57
2023-03-28T18:36:05.221Z,54.74
2023-03-28T18:38:54.022Z,56.12
2023-03-28T18:41:39.477Z,55.10
2023-03-28T18:44:24.869Z,55.72
2023-03-28T18:47:10.084Z,53.93
2023-03-28T18:49:55.370Z,54.79
2023-03-28T18:52:53.276Z,55.03
2023-03-28T18:55:41.920Z,54.37
2023-03-28T18:58:29.592Z,54.69
2023-03-28T19:01:15.075Z,55.01
2023-03-28T19:04:00.215Z,54.83
2023-03-28T19:06:46.099Z,55.00
2023-03-28T19:09:31.835Z,56.01
2023-03-28T19:12:17.352Z,56.81
2023-03-28T19:15:04.262Z,57.01
2023-03-28T19:17:49.988Z,55.46
2023-03-28T19:20:35.399Z,55.53
2023-03-28T19:23:21.758Z,55.49
2023-03-28T19:26:09.718Z,55.28
2023-03-28T19:28:55.252Z,55.23
2023-03-28T19:31:40.525Z,55.42
2023-03-28T19:34:26.166Z,55.06
2023-03-28T19:37:11.783Z,55.13
2023-03-28T19:39:56.970Z,55.99
2023-03-28T19:42:42.163Z,56.74
2023-03-28T19:45:28.917Z,56.53
2023-03-28T19:48:14.209Z,55.14
2023-03-28T19:51:00.896Z,55.85
2023-03-28T19:53:46.322Z,56.75
2023-03-28T19:56:31.868Z,56.94
2023-03-28T19:59:17.171Z,57.22
2023-03-28T20:02:02.484Z,57.28
2023-03-28T20:04:48.004Z,57.33
2023-03-28T20:07:33.131Z,56.94
2023-03-28T20:10:18.607Z,56.33
2023-03-28T20:13:04.273Z,55.61
2023-03-28T20:15:49.533Z,54.48
2023-03-28T20:18:36.196Z,52.67
2023-03-28T20:21:21.474Z,54.35
2023-03-28T20:24:07.171Z,53.52
2023-03-28T20:26:52.948Z,52.96
2023-03-28T20:29:38.215Z,52.88
2023-03-28T20:32:23.409Z,54.69
2023-03-28T20:35:09.081Z,53.79
2023-03-28T20:37:54.648Z,53.53
2023-03-28T20:40:40.202Z,54.41
2023-03-28T20:43:25.322Z,54.29
2023-03-28T20:46:10.842Z,54.08
2023-03-28T20:48:56.238Z,54.20
2023-03-28T20:51:41.415Z,52.62
2023-03-28T20:54:26.578Z,53.14
2023-03-28T20:57:12.036Z,53.81
2023-03-28T20:59:57.393Z,52.38
2023-03-28T21:02:42.609Z,51.35
2023-03-28T21:05:28.279Z,51.48
2023-03-28T21:08:15.531Z,52.24
2023-03-28T21:11:01.204Z,53.44
2023-03-28T21:13:46.857Z,53.76
2023-03-28T21:16:33.696Z,52.61
2023-03-28T21:19:19.061Z,53.31
2023-03-28T21:22:04.416Z,53.43
2023-03-28T21:24:49.569Z,53.32
2023-03-28T21:27:34.877Z,52.45
2023-03-28T21:30:19.992Z,53.40
2023-03-28T21:33:05.526Z,53.22
2023-03-28T21:35:51.839Z,52.98
2023-03-28T21:38:37.922Z,52.90
2023-03-28T21:41:23.692Z,53.16
2023-03-28T21:44:08.891Z,52.84
2023-03-28T21:46:54.557Z,53.37
2023-03-28T21:49:39.773Z,53.23
2023-03-28T21:52:24.859Z,53.03
2023-03-28T21:55:10.130Z,53.25
2023-03-28T21:57:55.328Z,52.80
2023-03-28T22:00:40.421Z,52.45
2023-03-28T22:03:25.791Z,52.68
2023-03-28T22:06:12.095Z,53.37
2023-03-28T22:08:57.473Z,52.09
2023-03-28T22:11:43.512Z,52.61
2023-03-28T22:14:29.270Z,52.06
2023-03-28T22:17:14.709Z,51.84
2023-03-28T22:20:00.168Z,52.73
2023-03-28T22:22:45.567Z,52.17
2023-03-28T22:25:31.665Z,52.86
2023-03-28T22:28:17.172Z,53.04
2023-03-28T22:31:02.871Z,52.83
2023-03-28T22:33:48.791Z,52.33
2023-03-28T22:36:34.040Z,51.81
2023-03-28T22:39:19.440Z,51.48
2023-03-28T22:42:05.054Z,51.50
2023-03-28T22:44:50.397Z,51.96
2023-03-28T22:47:36.063Z,50.20
2023-03-28T22:50:21.183Z,50.40
2023-03-28T22:53:06.765Z,49.98
2023-03-28T22:55:52.116Z,50.21
2023-03-28T22:58:37.567Z,50.05
2023-03-28T23:01:22.863Z,50.32
2023-03-28T23:04:08.657Z,49.54
2023-03-28T23:06:54.196Z,50.42
2023-03-28T23:09:40.360Z,50.25
2023-03-28T23:12:25.463Z,51.28
2023-03-28T23:15:11.698Z,51.63
2023-03-28T23:17:56.925Z,51.04
2023-03-28T23:20:42.408Z,51.66
2023-03-28T23:23:27.661Z,51.23
2023-03-28T23:26:16.444Z,50.92
2023-03-28T23:29:01.866Z,50.68
2023-03-28T23:31:47.297Z,49.57
2023-03-28T23:34:32.610Z,49.95
2023-03-28T23:37:17.988Z,51.05
2023-03-28T23:40:03.173Z,50.95
2023-03-28T23:42:48.893Z,50.45
2023-03-28T23:45:34.310Z,50.80
2023-03-28T23:48:19.571Z,52.02
2023-03-28T23:51:05.196Z,51.83
2023-03-28T23:53:50.801Z,53.11
2023-03-28T23:56:36.309Z,52.84
2023-03-28T23:59:21.910Z,54.26
